createdAt,value
2019-05-23T00:01:12.187Z,1.90
2019-05-23T00:06:35.544Z,2.20
2019-05-23T00:12:14.112Z,1.43
2019-05-23T00:17:29.779Z,1.43
2019-05-23T00:22:33.384Z,2.20
2019-05-23T00:27:37.687Z,1.67
2019-05-23T00:32:45.863Z,2.57
2019-05-23T00:37:50.679Z,1.83
2019-05-23T00:42:55.654Z,1.57
2019-05-23T00:47:59.739Z,1.27
2019-05-23T00:53:07.414Z,1.40
2019-05-23T00:58:11.423Z,2.27
2019-05-23T01:03:26.651Z,2.27
2019-05-23T01:08:31.240Z,1.77
2019-05-23T01:13:34.013Z,1.40
2019-05-23T01:18:39.362Z,2.00
2019-05-23T01:23:46.601Z,1.57
2019-05-23T01:28:49.252Z,1.53
2019-05-23T01:33:56.376Z,1.57
2019-05-23T01:39:00.943Z,1.83
2019-05-23T01:44:04.365Z,2.10
2019-05-23T01:49:07.820Z,2.00
2019-05-23T01:54:10.837Z,1.90
2019-05-23T01:59:16.744Z,2.40
2019-05-23T02:04:20.133Z,1.70
2019-05-23T02:09:23.261Z,1.70
2019-05-23T02:14:26.853Z,1.50
2019-05-23T02:19:29.549Z,1.80
2019-05-23T02:24:32.655Z,2.30
2019-05-23T02:29:35.790Z,2.07
2019-05-23T02:34:40.215Z,2.40
2019-05-23T02:40:00.713Z,2.40
2019-05-23T02:45:05.813Z,1.83
2019-05-23T02:50:16.459Z,1.80
2019-05-23T02:55:29.984Z,2.50
2019-05-23T03:00:57.914Z,1.90
2019-05-23T03:06:02.031Z,1.73
2019-05-23T03:11:32.821Z,1.70
2019-05-23T03:16:37.831Z,1.80
2019-05-23T03:21:42.872Z,2.03
2019-05-23T03:27:10.786Z,1.90
2019-05-23T03:32:37.547Z,1.40
2019-05-23T03:37:35.857Z,1.43
2019-05-23T03:42:38.990Z,1.77
2019-05-23T03:47:45.043Z,1.60
2019-05-23T03:52:49.556Z,1.63
2019-05-23T03:57:54.261Z,2.03
2019-05-23T04:02:58.867Z,1.77
2019-05-23T04:08:05.475Z,1.73
2019-05-23T04:13:08.923Z,2.17
2019-05-23T04:18:11.706Z,2.03
2019-05-23T04:23:14.398Z,1.77
2019-05-23T04:28:17.236Z,1.93
2019-05-23T04:33:23.409Z,1.93
2019-05-23T04:38:26.188Z,2.37
2019-05-23T04:43:28.917Z,1.87
2019-05-23T04:48:31.831Z,2.20
2019-05-23T04:53:35.650Z,2.10
2019-05-23T04:58:38.458Z,2.27
2019-05-23T05:03:43.396Z,1.73
2019-05-23T05:08:46.641Z,1.70
2019-05-23T05:13:49.511Z,2.00
2019-05-23T05:18:55.204Z,2.37
2019-05-23T05:23:57.226Z,1.60
2019-05-23T05:28:59.981Z,2.20
2019-05-23T05:34:02.771Z,2.17
2019-05-23T05:39:07.508Z,2.00
2019-05-23T05:44:11.782Z,2.10
2019-05-23T05:49:15.235Z,2.17
2019-05-23T05:54:18.195Z,2.23
2019-05-23T05:59:21.026Z,2.57
2019-05-23T06:04:24.186Z,2.77
2019-05-23T06:09:30.749Z,2.10
2019-05-23T06:14:33.580Z,2.40
2019-05-23T06:19:36.716Z,2.20
2019-05-23T06:24:48.232Z,2.40
2019-05-23T06:29:44.117Z,1.93
2019-05-23T06:34:48.217Z,2.87
2019-05-23T06:39:51.090Z,2.17
2019-05-23T06:44:54.791Z,2.53
2019-05-23T06:49:57.648Z,2.90
2019-05-23T06:55:00.334Z,2.67
2019-05-23T07:00:04.299Z,2.80
2019-05-23T07:05:08.280Z,2.90
2019-05-23T07:10:12.168Z,2.90
2019-05-23T07:15:15.060Z,3.17
2019-05-23T07:20:18.372Z,3.13
2019-05-23T07:25:21.876Z,2.27
2019-05-23T07:30:25.564Z,2.10
2019-05-23T07:35:28.612Z,2.33
2019-05-23T07:40:31.490Z,2.00
2019-05-23T07:45:45.747Z,2.03
2019-05-23T07:50:48.622Z,1.57
2019-05-23T07:55:53.528Z,1.60
2019-05-23T08:00:58.878Z,1.90
2019-05-23T08:06:03.358Z,1.90
2019-05-23T08:11:06.157Z,1.70
2019-05-23T08:16:09.376Z,1.65
2019-05-23T08:21:12.344Z,1.70
2019-05-23T08:31:26.526Z,1.50
2019-05-23T08:36:29.844Z,1.35
2019-05-23T08:41:34.378Z,0.82
2019-05-23T08:46:37.135Z,1.65
2019-05-23T08:51:39.766Z,1.12
2019-05-23T08:56:42.438Z,1.75
2019-05-23T09:01:45.294Z,2.33
2019-05-23T09:06:47.955Z,1.17
2019-05-23T09:11:51.905Z,1.30
2019-05-23T09:16:54.871Z,1.50
2019-05-23T09:21:58.274Z,0.90
2019-05-23T09:27:01.050Z,1.95
2019-05-23T09:32:04.219Z,1.60
2019-05-23T09:37:08.949Z,1.32
2019-05-23T09:42:12.859Z,2.00
2019-05-23T09:47:15.876Z,1.50
2019-05-23T09:52:19.268Z,1.13
2019-05-23T09:57:22.418Z,0.98
2019-05-23T10:02:27.012Z,1.10
2019-05-23T10:07:30.001Z,1.42
2019-05-23T10:12:32.846Z,1.65
2019-05-23T10:17:35.617Z,0.95
2019-05-23T10:22:38.426Z,1.10
2019-05-23T10:27:41.101Z,0.90
2019-05-23T10:32:43.886Z,1.07
2019-05-23T10:37:46.659Z,1.00
2019-05-23T10:42:49.419Z,0.80
2019-05-23T10:47:52.332Z,1.02
2019-05-23T10:52:55.162Z,0.95
2019-05-23T10:57:57.755Z,0.80
2019-05-23T11:03:00.868Z,1.22
2019-05-23T11:08:03.738Z,1.37
2019-05-23T11:13:06.532Z,1.00
2019-05-23T11:18:10.408Z,1.05
2019-05-23T11:23:16.812Z,1.15
2019-05-23T11:28:19.935Z,1.20
2019-05-23T11:33:24.429Z,1.10
2019-05-23T11:38:27.544Z,1.10
2019-05-23T11:43:31.363Z,1.27
2019-05-23T11:48:34.408Z,1.07
2019-05-23T11:53:37.428Z,0.90
2019-05-23T11:58:40.337Z,0.98
2019-05-23T12:03:44.852Z,0.85
2019-05-23T12:08:47.547Z,1.00
2019-05-23T12:13:50.638Z,1.27
2019-05-23T12:18:53.437Z,1.15
2019-05-23T12:23:56.096Z,1.20
2019-05-23T12:28:59.113Z,1.57
2019-05-23T12:34:01.875Z,1.15
2019-05-23T12:39:07.488Z,1.32
2019-05-23T12:44:10.608Z,1.30
2019-05-23T12:49:24.428Z,0.90
2019-05-23T12:54:28.793Z,0.65
2019-05-23T12:59:31.868Z,0.90
2019-05-23T13:04:35.550Z,1.30
2019-05-23T13:09:38.758Z,0.78
2019-05-23T13:14:41.501Z,0.80
2019-05-23T13:19:44.603Z,1.05
2019-05-23T13:24:52.620Z,1.00
2019-05-23T13:29:51.983Z,1.42
2019-05-23T13:34:54.834Z,1.12
2019-05-23T13:39:57.668Z,0.90
2019-05-23T13:45:00.790Z,0.80
2019-05-23T13:50:04.465Z,0.90
2019-05-23T13:55:07.781Z,0.98
2019-05-23T14:00:12.551Z,0.80
2019-05-23T14:05:18.883Z,0.90
2019-05-23T14:10:21.164Z,0.53
2019-05-23T14:15:27.520Z,0.60
2019-05-23T14:20:30.303Z,0.90
2019-05-23T14:25:33.104Z,0.90
2019-05-23T14:30:49.685Z,1.55
2019-05-23T14:35:55.665Z,1.07
2019-05-23T14:40:59.050Z,2.12
2019-05-23T14:46:07.666Z,1.87
2019-05-23T14:51:20.677Z,2.60
2019-05-23T14:56:25.381Z,2.45
2019-05-23T15:01:30.286Z,1.77
2019-05-23T15:06:33.348Z,2.20
2019-05-23T15:11:36.618Z,3.40
2019-05-23T15:16:39.581Z,2.95
2019-05-23T15:21:42.607Z,2.72
2019-05-23T15:26:45.453Z,2.70
2019-05-23T15:32:01.910Z,2.50
2019-05-23T15:36:53.185Z,2.72
2019-05-23T15:42:02.029Z,2.98
2019-05-23T15:47:05.700Z,2.70
2019-05-23T15:52:37.228Z,2.62
2019-05-23T15:57:45.245Z,2.60
2019-05-23T16:03:02.857Z,3.42
2019-05-23T16:08:05.650Z,3.37
2019-05-23T16:13:08.412Z,3.42
2019-05-23T16:18:12.071Z,3.65
2019-05-23T16:23:15.174Z,3.58
2019-05-23T16:28:17.940Z,4.17
2019-05-23T16:33:20.751Z,4.40
2019-05-23T16:38:23.558Z,3.40
2019-05-23T16:43:26.535Z,4.00
2019-05-23T16:48:29.266Z,3.25
2019-05-23T16:53:35.788Z,3.70
2019-05-23T16:59:07.983Z,3.00
2019-05-23T17:04:17.071Z,3.08
2019-05-23T17:09:39.534Z,3.30
2019-05-23T17:14:53.336Z,3.40
2019-05-23T17:20:19.728Z,3.10
2019-05-23T17:25:34.746Z,3.70
2019-05-23T17:30:46.221Z,3.27
2019-05-23T17:35:52.344Z,3.42
2019-05-23T17:40:55.819Z,4.10
2019-05-23T17:45:58.796Z,3.22
2019-05-23T17:51:01.843Z,3.75
2019-05-23T17:56:05.227Z,3.10
2019-05-23T18:01:08.307Z,3.65
2019-05-23T18:06:11.283Z,3.08
2019-05-23T18:11:15.130Z,3.10
2019-05-23T18:16:18.589Z,3.62
2019-05-23T18:21:23.746Z,3.55
2019-05-23T18:26:27.105Z,3.98
2019-05-23T18:31:48.323Z,4.05
2019-05-23T18:36:52.514Z,4.22
2019-05-23T18:42:01.452Z,3.95
2019-05-23T18:47:12.775Z,3.65
2019-05-23T18:52:16.766Z,4.12
2019-05-23T18:57:20.761Z,4.05
2019-05-23T19:02:25.087Z,4.47
2019-05-23T19:07:28.511Z,4.08
2019-05-23T19:12:32.649Z,4.37
2019-05-23T19:17:36.858Z,4.60
2019-05-23T19:22:40.097Z,4.80
2019-05-23T19:27:43.930Z,4.90
2019-05-23T19:32:47.614Z,6.08
2019-05-23T19:37:50.547Z,5.93
2019-05-23T19:42:53.789Z,5.87
2019-05-23T19:47:57.415Z,5.90
2019-05-23T19:53:00.632Z,6.57
2019-05-23T19:58:04.384Z,7.50
2019-05-23T20:03:09.180Z,7.53
2019-05-23T20:08:12.418Z,8.50
2019-05-23T20:13:18.307Z,9.37
2019-05-23T20:18:21.169Z,8.93
2019-05-23T20:23:24.178Z,8.57
2019-05-23T20:28:27.471Z,9.23
2019-05-23T20:33:30.720Z,9.93
2019-05-23T20:38:34.324Z,10.37
2019-05-23T20:43:37.505Z,10.13
2019-05-23T20:48:40.624Z,11.13
2019-05-23T20:53:43.702Z,11.17
2019-05-23T20:58:46.704Z,11.20
2019-05-23T21:03:52.405Z,13.17
2019-05-23T21:08:55.305Z,13.20
2019-05-23T21:13:58.233Z,11.87
2019-05-23T21:19:01.293Z,11.70
2019-05-23T21:24:05.322Z,9.73
2019-05-23T21:29:08.484Z,9.47
2019-05-23T21:34:11.294Z,10.13
2019-05-23T21:39:15.076Z,11.20
2019-05-23T21:44:18.464Z,11.87
2019-05-23T21:49:21.246Z,13.10
2019-05-23T21:54:27.034Z,13.53
2019-05-23T21:59:29.875Z,12.97
2019-05-23T22:04:46.865Z,12.30
2019-05-23T22:09:50.645Z,12.87
2019-05-23T22:14:53.892Z,10.43
2019-05-23T22:19:57.175Z,10.33
2019-05-23T22:30:48.117Z,7.90
2019-05-23T22:35:52.810Z,6.83
2019-05-23T22:40:55.530Z,7.07
2019-05-23T22:45:58.498Z,8.00
2019-05-23T22:51:01.728Z,8.33
2019-05-23T22:56:05.316Z,7.73
2019-05-23T23:01:08.498Z,7.53
2019-05-23T23:06:11.211Z,7.30
2019-05-23T23:11:14.279Z,7.87
2019-05-23T23:16:17.284Z,7.83
2019-05-23T23:21:20.041Z,7.20
2019-05-23T23:26:22.708Z,7.20
2019-05-23T23:31:25.694Z,4.77
2019-05-23T23:36:28.583Z,4.30
2019-05-23T23:41:31.422Z,4.00
2019-05-23T23:46:52.420Z,3.70
2019-05-23T23:52:13.258Z,2.70
2019-05-23T23:57:36.054Z,2.60
